• Join FlightAware (Why Join?)
  • Login
  • US Flag GB Flag 
11:00 EDT


 

Airport Tracker/Info


-or-


 

Live Flight TrackerFlight Track Log ✈ GLA63P ✈ 04-May-2013 ✈ KCNY - KDEN

Flight Track Log - Related Links

Times and Time Zones

All times are in EDT time to prevent confusion due to time zone crossing. See the GLA63P flight status page for this flight to view local times or setup timezone preferences in your user account.

Time Position Orientation Groundspeed Altitude Reporting Facility
EDT Latitude Longitude Course Direction KTS MPH feet Rate Location/Type
10:03 38.7658 -109.7944 339° North 181 208 8,200  Level Denver Center
10:04 38.7606 -109.7394 97° East 165 190 10,200 1,980 Climbing Denver Center
10:05 38.7564 -109.6811 95° East 168 193 12,300 2,040 Climbing Denver Center
10:06 38.6866 -109.1864 102° East  Level FlightAware Approximate
10:06 38.7544 -109.6092 92° East 175 201 14,400  Level Denver Center
10:07 38.6817 -109.0918 104° East  Level FlightAware Approximate
10:07 38.7453 -109.5392 100° East 186 214 16,200  Level Denver Center
10:08 38.7331 -109.4653 102° East 210 242 18,000 1,680 Climbing Denver Center
10:09 38.7400 -109.3819 84° East 221 254 19,700 1,320 Climbing Denver Center
10:10 38.7447 -109.2964 86° East 241 277 20,800 1,020 Climbing Denver Center
10:11 38.7456 -109.2039 89° East 259 298 21,900 960 Climbing Denver Center
10:12 38.7536 -109.1019 84° East 268 308 22,800 780 Climbing Denver Center
10:13 38.7614 -109.0061 84° East 271 312 23,600 660 Climbing Denver Center
10:14 38.7700 -108.9117 83° East 276 318 24,200 480 Climbing Denver Center
10:15 38.7778 -108.8142 84° East 286 329 24,600 360 Climbing Denver Center
10:16 38.7864 -108.6975 85° East 295 339 25,000 240 Climbing Denver Center
10:17 38.7958 -108.5931 83° East 307 353 25,100  Climbing Denver Center
10:18 38.8056 -108.4692 84° East 315 362 25,100  Level Denver Center
10:19 38.8192 -108.3442 82° East 318 366 25,100  Level Denver Center
10:20 38.8297 -108.2178 84° East 319 367 25,100 -60 Level Denver Center
10:21 38.8358 -108.1289 85° East 316 364 25,000 -60 Descending Denver Center
10:22 38.8508 -107.9861 82° East 317 365 25,000  Level Denver Center
10:23 38.8622 -107.8803 82° East 315 362 25,000  Level Denver Center
10:24 38.8744 -107.7572 83° East 313 360 25,100  Climbing Denver Center
10:25 38.8878 -107.6533 81° East 311 358 25,100  Level Denver Center
10:27 38.8986 -107.5464 83° East 313 360 25,100  Level Denver Center
10:28 38.9069 -107.4222 85° East 314 361 25,100  Level Denver Center
10:29 38.9178 -107.3156 83° East 313 360 25,100 -60 Level Denver Center
10:30 38.9258 -107.1917 85° East 313 360 25,000  Descending Denver Center
10:31 38.9353 -107.0847 83° East 315 362 25,100  Climbing Denver Center
10:32 38.9431 -106.9617 85° East 312 359 25,100  Level Denver Center
10:33 38.9472 -106.8553 87° East 313 360 25,100  Level Denver Center
10:34 38.9578 -106.7483 83° East 314 361 25,100  Level Denver Center
10:35 38.9703 -106.6253 83° East 313 360 25,100 -60 Level Denver Center
10:36 38.9797 -106.5192 83° East 313 360 25,000  Descending Denver Center
10:37 38.9886 -106.3939 85° East 314 361 25,100 -180 Climbing Denver Center
10:38 38.9983 -106.2897 83° East 309 356 24,700 -780 Descending Denver Center
10:39 39.0258 -106.1725 73° East 307 353 23,500 -840 Descending Denver Center
10:40 39.0561 -106.0853 66° East 305 351 23,000 -840 Descending Denver Center
10:41 39.0958 -105.9756 65° Northeast 291 335 21,800 -1,320 Descending Denver Center
10:42 39.1253 -105.8767 69° East 292 336 20,300 -1,560 Descending Denver Center
10:43 39.1575 -105.7814 66° East 290 334 18,700 -1,560 Descending Denver Center
10:44 39.1833 -105.6850 71° East 283 326 17,100 -1,260 Descending Denver Center
10:45 39.2100 -105.5933 69° East 274 315 16,100 -600 Descending Denver Center
10:46 39.2425 -105.5025 65° Northeast 273 314 15,900 -480 Descending Denver Center
10:47 39.2703 -105.3983 71° East 290 334 15,200 -720 Descending Denver Center
10:48 39.2836 -105.2889 81° East 286 329 14,500 -660 Descending Denver Center
10:49 39.2956 -105.1861 81° East 289 333 13,900 -720 Descending Denver Center
10:50 39.3108 -105.0744 80° East 292 336 13,100 -420 Descending Denver Center
10:51 39.3269 -104.9817 77° East 270 311 13,100 -60 Level Denver Center
10:52 39.3425 -104.8853 78° East 259 298 13,000 -540 Descending Denver Center
10:53 39.3394 -104.7967 93° East 252 290 12,000 -1,020 Descending Denver Center
10:54 39.3389 -104.7100 90° East 243 280 11,000 -540 Descending Denver Center
10:55 39.3906 -104.6522 41° Northeast 233 268 10,900 -180 Descending Denver Center
10:56 39.4567 -104.6453 North 238 274 10,700 -240 Descending Denver Center
10:57 39.5283 -104.6450 360° North 239 275 10,500 -300 Descending Denver Center
10:58 39.5972 -104.6439 North 246 283 10,200 -960 Descending Denver Center
10:59 39.6700 -104.6433 360° North 243 280 8,600 -1,380 Descending Denver Center
11:01 39.7350 -104.6425 North 233 268 7,400 -1,200 Descending Denver Center
11:02 39.7931 -104.6425 360° North 177 204 6,200 -960 Descending Denver Center
11:03 39.8322 -104.6417 North 144 166 5,500 -720 Descending Denver Center
11:05 39.8500 -104.6667 346° North  Level FlightAware Approximate
11:12 39.8617 -104.6732 346° North  Level Estimated
11:13 39.8617 -104.6732 346° North  Level Estimated
11:14 39.8617 -104.6732 346° North  Level Estimated